createdAt,value
2018-12-20T00:00:40.671Z,5.83
2018-12-20T00:03:08.314Z,6.37
2018-12-20T00:05:35.848Z,6.30
2018-12-20T00:08:03.292Z,6.22
2018-12-20T00:10:30.785Z,5.87
2018-12-20T00:12:58.351Z,6.00
2018-12-20T00:15:25.887Z,5.53
2018-12-20T00:17:53.413Z,5.80
2018-12-20T00:20:20.906Z,5.70
2018-12-20T00:22:48.409Z,5.80
2018-12-20T00:25:15.987Z,5.42
2018-12-20T00:27:43.476Z,5.75
2018-12-20T00:30:11.059Z,5.60
2018-12-20T00:32:38.611Z,6.03
2018-12-20T00:35:06.190Z,6.03
2018-12-20T00:37:34.620Z,5.67
2018-12-20T00:40:06.377Z,6.72
2018-12-20T00:42:31.648Z,4.72
2018-12-20T00:44:59.164Z,5.75
2018-12-20T00:47:26.675Z,6.13
2018-12-20T00:49:54.284Z,5.65
2018-12-20T00:52:21.803Z,5.70
2018-12-20T00:54:49.473Z,4.95
2018-12-20T00:57:17.156Z,5.00
2018-12-20T00:59:44.851Z,4.83
2018-12-20T01:02:12.347Z,5.20
2018-12-20T01:04:40.073Z,4.53
2018-12-20T01:07:07.606Z,4.70
2018-12-20T01:09:35.165Z,5.58
2018-12-20T01:12:02.877Z,4.90
2018-12-20T01:14:30.584Z,5.28
2018-12-20T01:16:58.254Z,4.90
2018-12-20T01:19:25.773Z,4.47
2018-12-20T01:21:53.326Z,5.20
2018-12-20T01:24:20.901Z,5.30
2018-12-20T01:26:48.490Z,5.05
2018-12-20T01:29:16.728Z,5.27
2018-12-20T01:31:44.244Z,5.10
2018-12-20T01:34:11.820Z,5.80
2018-12-20T01:36:39.508Z,5.90
2018-12-20T01:39:07.155Z,5.65
2018-12-20T01:41:34.839Z,6.45
2018-12-20T01:44:02.447Z,5.40
2018-12-20T01:46:30.019Z,7.05
2018-12-20T01:48:57.555Z,6.25
2018-12-20T01:51:25.017Z,5.62
2018-12-20T01:53:52.485Z,5.20
2018-12-20T01:56:20.088Z,5.65
2018-12-20T01:58:47.634Z,6.08
2018-12-20T02:01:15.279Z,5.97
2018-12-20T02:03:42.885Z,4.83
2018-12-20T02:06:10.436Z,5.58
2018-12-20T02:08:37.922Z,5.40
2018-12-20T02:11:05.535Z,5.78
2018-12-20T02:13:33.074Z,6.03
2018-12-20T02:16:00.582Z,5.60
2018-12-20T02:18:28.033Z,6.05
2018-12-20T02:20:55.612Z,5.72
2018-12-20T02:23:23.255Z,5.70
2018-12-20T02:25:50.839Z,5.42
2018-12-20T02:28:18.333Z,5.50
2018-12-20T02:30:45.872Z,4.95
2018-12-20T02:33:13.344Z,5.65
2018-12-20T02:35:40.811Z,5.92
2018-12-20T02:38:08.346Z,6.12
2018-12-20T02:40:35.919Z,5.58
2018-12-20T02:43:03.419Z,5.87
2018-12-20T02:45:30.949Z,6.95
2018-12-20T02:47:58.483Z,6.10
2018-12-20T02:50:26.039Z,5.45
2018-12-20T02:52:53.574Z,6.20
2018-12-20T02:55:21.329Z,5.67
2018-12-20T02:57:49.058Z,5.45
2018-12-20T03:00:16.744Z,5.40
2018-12-20T03:02:44.954Z,6.90
2018-12-20T03:05:12.555Z,6.20
2018-12-20T03:07:40.058Z,6.12
2018-12-20T03:10:07.702Z,5.20
2018-12-20T03:12:35.484Z,5.45
2018-12-20T03:15:03.565Z,5.97
2018-12-20T03:17:31.022Z,4.92
2018-12-20T03:19:58.557Z,5.03
2018-12-20T03:22:26.163Z,4.90
2018-12-20T03:24:53.651Z,5.17
2018-12-20T03:27:21.209Z,5.30
2018-12-20T03:29:49.072Z,5.50
2018-12-20T03:32:16.591Z,4.85
2018-12-20T03:34:44.267Z,3.83
2018-12-20T03:37:11.945Z,4.45
2018-12-20T03:39:39.619Z,4.47
2018-12-20T03:42:07.249Z,4.63
2018-12-20T03:44:34.702Z,4.42
2018-12-20T03:47:02.151Z,4.30
2018-12-20T03:49:29.624Z,4.90
2018-12-20T03:51:57.201Z,5.58
2018-12-20T03:54:24.973Z,5.25
2018-12-20T03:56:52.799Z,5.95
2018-12-20T03:59:20.589Z,5.30
2018-12-20T04:01:48.244Z,5.53
2018-12-20T04:04:15.847Z,5.50
2018-12-20T04:06:43.415Z,5.80
2018-12-20T04:09:10.860Z,4.72
2018-12-20T04:11:38.374Z,5.25
2018-12-20T04:14:06.028Z,5.08
2018-12-20T04:16:33.607Z,4.10
2018-12-20T04:19:01.144Z,4.83
2018-12-20T04:21:28.803Z,4.62
2018-12-20T04:23:56.425Z,5.45
2018-12-20T04:26:24.158Z,4.90
2018-12-20T04:28:51.624Z,5.03
2018-12-20T04:31:19.356Z,5.07
2018-12-20T04:33:46.873Z,4.22
2018-12-20T04:36:14.806Z,5.00
2018-12-20T04:38:42.477Z,4.22
2018-12-20T04:41:10.013Z,3.85
2018-12-20T04:43:37.517Z,4.42
2018-12-20T04:46:05.126Z,4.00
2018-12-20T04:48:32.643Z,4.10
2018-12-20T04:51:00.376Z,4.30
2018-12-20T04:53:27.967Z,4.00
2018-12-20T04:55:55.567Z,3.80
2018-12-20T04:58:23.171Z,4.40
2018-12-20T05:00:50.710Z,4.10
2018-12-20T05:03:18.242Z,4.08
2018-12-20T05:05:45.777Z,3.20
2018-12-20T05:08:13.374Z,2.90
2018-12-20T05:10:41.490Z,3.35
2018-12-20T05:13:08.994Z,2.45
2018-12-20T05:15:36.505Z,3.10
2018-12-20T05:18:04.296Z,2.80
2018-12-20T05:20:32.174Z,3.00
2018-12-20T05:22:59.794Z,3.05
2018-12-20T05:25:27.241Z,3.20
2018-12-20T05:27:54.700Z,2.80
2018-12-20T05:30:22.190Z,3.12
2018-12-20T05:32:49.760Z,2.83
2018-12-20T05:35:17.296Z,3.75
2018-12-20T05:37:44.863Z,2.50
2018-12-20T05:40:12.399Z,2.45
2018-12-20T05:42:39.868Z,2.52
2018-12-20T05:45:07.729Z,2.83
2018-12-20T05:47:35.499Z,3.00
2018-12-20T05:50:03.933Z,3.10
2018-12-20T05:52:31.618Z,2.37
2018-12-20T05:54:59.128Z,2.33
2018-12-20T05:57:26.581Z,3.10
2018-12-20T05:59:54.165Z,2.90
2018-12-20T06:02:21.689Z,3.12
2018-12-20T06:04:49.152Z,2.70
2018-12-20T06:07:16.689Z,2.30
2018-12-20T06:09:44.202Z,3.05
2018-12-20T06:12:11.689Z,3.70
2018-12-20T06:14:39.238Z,3.15
2018-12-20T06:17:06.957Z,3.20
2018-12-20T06:19:34.523Z,3.10
2018-12-20T06:22:02.065Z,2.85
2018-12-20T06:24:29.612Z,2.92
2018-12-20T06:26:57.112Z,2.90
2018-12-20T06:29:24.576Z,3.10
2018-12-20T06:31:52.021Z,3.00
2018-12-20T06:34:19.470Z,2.70
2018-12-20T06:36:47.034Z,3.00
2018-12-20T06:39:14.479Z,3.20
2018-12-20T06:41:43.175Z,2.35
2018-12-20T06:44:10.614Z,3.17
2018-12-20T06:46:39.994Z,2.83
2018-12-20T06:49:07.449Z,4.12
2018-12-20T06:51:34.891Z,3.00
2018-12-20T06:54:02.353Z,3.62
2018-12-20T06:56:29.793Z,3.00
2018-12-20T06:58:57.249Z,3.10
2018-12-20T07:01:24.701Z,3.10
2018-12-20T07:03:52.196Z,3.67
2018-12-20T07:06:23.400Z,3.45
2018-12-20T07:08:50.949Z,3.70
2018-12-20T07:11:18.407Z,3.87
2018-12-20T07:13:45.861Z,2.75
2018-12-20T07:16:13.315Z,3.37
2018-12-20T07:18:40.766Z,3.58
2018-12-20T07:21:08.205Z,2.92
2018-12-20T07:23:35.673Z,2.85
2018-12-20T07:26:03.159Z,2.50
2018-12-20T07:28:30.628Z,2.47
2018-12-20T07:30:58.086Z,3.47
2018-12-20T07:33:25.537Z,2.95
2018-12-20T07:35:52.993Z,2.35
2018-12-20T07:38:20.457Z,3.62
2018-12-20T07:40:47.897Z,3.83
2018-12-20T07:43:15.358Z,3.87
2018-12-20T07:45:42.844Z,4.25
2018-12-20T07:48:10.293Z,4.50
2018-12-20T07:50:39.144Z,3.50
2018-12-20T07:53:06.786Z,2.72
2018-12-20T07:55:34.242Z,2.58
2018-12-20T07:58:01.752Z,2.60
2018-12-20T08:00:31.192Z,2.17
2018-12-20T08:03:10.061Z,2.17
2018-12-20T08:05:37.533Z,2.50
2018-12-20T08:08:05.017Z,2.10
2018-12-20T08:10:32.510Z,1.80
2018-12-20T08:12:59.982Z,2.55
2018-12-20T08:15:27.498Z,2.15
2018-12-20T08:17:54.952Z,1.80
2018-12-20T08:20:22.473Z,2.02
2018-12-20T08:22:49.938Z,1.55
2018-12-20T08:25:17.440Z,1.57
2018-12-20T08:27:44.900Z,1.63
2018-12-20T08:30:12.499Z,1.70
2018-12-20T08:32:40.059Z,1.97
2018-12-20T08:35:07.607Z,1.30
2018-12-20T08:37:35.074Z,1.10
2018-12-20T08:40:02.682Z,1.37
2018-12-20T08:42:30.191Z,1.40
2018-12-20T08:44:57.646Z,1.30
2018-12-20T08:47:25.112Z,1.20
2018-12-20T08:49:52.562Z,1.47
2018-12-20T08:52:20.015Z,1.07
2018-12-20T08:54:47.603Z,1.60
2018-12-20T08:57:15.053Z,1.30
2018-12-20T08:59:42.558Z,0.70
2018-12-20T09:02:10.027Z,1.47
2018-12-20T09:04:37.509Z,0.93
2018-12-20T09:07:04.992Z,1.40
2018-12-20T09:09:32.721Z,1.47
2018-12-20T09:12:00.190Z,1.00
2018-12-20T09:14:27.651Z,1.20
2018-12-20T09:17:02.656Z,1.43
2018-12-20T09:19:24.576Z,1.10
2018-12-20T09:21:52.205Z,1.20
2018-12-20T09:24:19.858Z,1.10
2018-12-20T09:26:47.478Z,1.50
2018-12-20T09:29:14.987Z,1.30
2018-12-20T09:31:42.431Z,1.32
2018-12-20T09:34:10.033Z,1.00
2018-12-20T09:36:37.477Z,0.80
2018-12-20T09:39:06.995Z,1.20
2018-12-20T09:41:34.458Z,0.80
2018-12-20T09:44:01.945Z,0.90
2018-12-20T09:46:29.403Z,0.90
2018-12-20T09:48:56.994Z,1.20
2018-12-20T09:51:24.474Z,0.90
2018-12-20T09:53:51.939Z,1.10
2018-12-20T09:56:19.398Z,1.10
2018-12-20T09:58:46.871Z,0.80
2018-12-20T10:01:14.519Z,1.07
2018-12-20T10:03:42.966Z,1.10
2018-12-20T10:06:10.426Z,0.70
2018-12-20T10:08:37.926Z,1.10
2018-12-20T10:11:05.382Z,1.07
2018-12-20T10:13:32.819Z,1.00
2018-12-20T10:16:00.279Z,1.10
2018-12-20T10:18:27.725Z,0.80
2018-12-20T10:20:55.190Z,0.93
2018-12-20T10:23:22.638Z,1.00
2018-12-20T10:25:50.092Z,1.23
2018-12-20T10:28:17.574Z,1.20
2018-12-20T10:30:45.120Z,1.03
2018-12-20T10:33:12.609Z,1.83
2018-12-20T10:35:40.114Z,0.60
2018-12-20T10:38:07.582Z,0.70
2018-12-20T10:40:35.062Z,0.60
2018-12-20T10:43:02.548Z,0.70
2018-12-20T10:45:30.204Z,0.70
2018-12-20T10:47:57.651Z,0.83
2018-12-20T10:50:25.145Z,0.80
2018-12-20T10:52:52.593Z,0.67
2018-12-20T10:55:20.054Z,0.80
2018-12-20T10:57:47.507Z,0.50
2018-12-20T11:00:15.049Z,0.90
2018-12-20T11:02:48.113Z,0.47
2018-12-20T11:05:22.033Z,0.60
2018-12-20T11:07:55.570Z,0.80
2018-12-20T11:10:25.638Z,0.90
2018-12-20T11:12:53.141Z,0.50
2018-12-20T11:15:20.598Z,0.63
2018-12-20T11:17:48.045Z,0.60
2018-12-20T11:20:15.510Z,0.73
2018-12-20T11:22:42.998Z,0.60
2018-12-20T11:25:10.458Z,0.80
2018-12-20T11:27:37.909Z,0.70
2018-12-20T11:30:07.178Z,0.50
2018-12-20T11:32:34.649Z,0.67
2018-12-20T11:35:02.125Z,1.03
2018-12-20T11:37:29.577Z,0.80
2018-12-20T11:39:59.686Z,0.73
2018-12-20T11:42:26.501Z,0.67
2018-12-20T11:44:53.940Z,0.80
2018-12-20T11:47:27.454Z,0.70
2018-12-20T11:49:54.941Z,0.60
2018-12-20T11:52:22.446Z,0.90
2018-12-20T11:54:49.927Z,0.70
2018-12-20T11:57:17.788Z,0.50
2018-12-20T11:59:45.388Z,0.87
2018-12-20T12:02:12.851Z,0.57
2018-12-20T12:04:40.333Z,0.67
2018-12-20T12:07:07.797Z,0.80
2018-12-20T12:09:35.290Z,0.60
2018-12-20T12:12:02.922Z,0.50
2018-12-20T12:14:30.372Z,1.00
2018-12-20T12:16:57.893Z,0.53
2018-12-20T12:19:25.478Z,0.57
2018-12-20T12:21:53.005Z,0.70
2018-12-20T12:24:20.490Z,0.57
2018-12-20T12:26:48.058Z,0.73
2018-12-20T12:29:15.708Z,0.60
2018-12-20T12:31:43.158Z,0.50
2018-12-20T12:34:10.602Z,0.53
2018-12-20T12:36:38.060Z,0.60
2018-12-20T12:39:07.207Z,0.77
2018-12-20T12:41:34.745Z,0.70
2018-12-20T12:44:02.200Z,0.50
2018-12-20T12:46:29.669Z,0.70
2018-12-20T12:48:57.160Z,0.60
2018-12-20T12:51:24.615Z,0.50
2018-12-20T12:53:52.077Z,0.50
2018-12-20T12:56:19.638Z,0.80
2018-12-20T12:58:47.095Z,0.93
2018-12-20T13:01:14.627Z,0.60
2018-12-20T13:03:42.091Z,0.50
2018-12-20T13:06:09.575Z,0.50
2018-12-20T13:08:37.541Z,0.60
2018-12-20T13:11:05.042Z,0.60
2018-12-20T13:13:32.493Z,0.50
2018-12-20T13:15:59.941Z,0.90
2018-12-20T13:18:27.394Z,0.40
2018-12-20T13:20:54.842Z,0.60
2018-12-20T13:23:22.301Z,0.60
2018-12-20T13:25:49.744Z,0.80
2018-12-20T13:28:17.253Z,0.60
2018-12-20T13:30:44.694Z,0.50
2018-12-20T13:33:12.146Z,0.50
2018-12-20T13:35:39.640Z,0.50
2018-12-20T13:38:07.102Z,0.50
2018-12-20T13:40:34.595Z,0.47
2018-12-20T13:43:02.093Z,0.50
2018-12-20T13:45:29.539Z,0.60
2018-12-20T13:47:57.042Z,0.50
2018-12-20T13:50:24.529Z,0.50
2018-12-20T13:52:53.820Z,0.80
2018-12-20T13:55:21.503Z,0.70
2018-12-20T13:57:48.951Z,0.50
2018-12-20T14:00:16.418Z,0.63
2018-12-20T14:02:43.931Z,0.67
2018-12-20T14:05:11.516Z,0.80
2018-12-20T14:07:39.015Z,0.57
2018-12-20T14:10:06.960Z,0.50
2018-12-20T14:12:34.417Z,0.50
2018-12-20T14:15:01.989Z,0.60
2018-12-20T14:17:29.441Z,0.53
2018-12-20T14:19:56.958Z,0.50
2018-12-20T14:22:24.411Z,0.70
2018-12-20T14:24:51.864Z,0.73
2018-12-20T14:27:19.310Z,0.50
2018-12-20T14:29:46.812Z,0.50
2018-12-20T14:32:14.348Z,0.60
2018-12-20T14:34:41.806Z,0.60
2018-12-20T14:37:09.274Z,0.90
2018-12-20T14:39:36.805Z,1.00
2018-12-20T14:42:04.250Z,0.63
2018-12-20T14:44:31.749Z,0.60
2018-12-20T14:46:59.213Z,0.50
2018-12-20T14:49:26.673Z,0.60
2018-12-20T14:51:54.120Z,0.60
2018-12-20T14:54:21.577Z,0.57
2018-12-20T14:56:49.039Z,0.50
2018-12-20T14:59:16.491Z,0.50
2018-12-20T15:01:43.955Z,0.60
2018-12-20T15:04:11.416Z,0.80
2018-12-20T15:06:38.868Z,0.73
2018-12-20T15:09:07.012Z,0.60
2018-12-20T15:11:34.465Z,0.80
2018-12-20T15:14:02.024Z,0.70
2018-12-20T15:16:29.478Z,0.63
2018-12-20T15:18:56.938Z,1.00
2018-12-20T15:21:24.396Z,0.87
2018-12-20T15:23:51.850Z,0.77
2018-12-20T15:26:19.299Z,2.27
2018-12-20T15:28:46.756Z,2.83
2018-12-20T15:31:14.218Z,1.63
2018-12-20T15:33:41.667Z,1.47
2018-12-20T15:36:09.342Z,0.87
2018-12-20T15:38:36.811Z,0.70
2018-12-20T15:41:04.398Z,0.73
2018-12-20T15:43:32.370Z,0.60
2018-12-20T15:45:59.835Z,0.70
2018-12-20T15:48:27.307Z,0.83
2018-12-20T15:50:54.852Z,0.60
2018-12-20T15:53:22.338Z,1.03
2018-12-20T15:55:49.792Z,1.10
2018-12-20T15:58:17.276Z,1.30
2018-12-20T16:00:44.729Z,1.60
2018-12-20T16:03:12.178Z,1.10
2018-12-20T16:05:39.646Z,0.97
2018-12-20T16:08:07.145Z,1.23
2018-12-20T16:10:34.804Z,1.13
2018-12-20T16:13:02.302Z,1.10
2018-12-20T16:15:29.756Z,1.17
2018-12-20T16:17:57.209Z,0.87
2018-12-20T16:20:24.712Z,0.97
2018-12-20T16:22:52.181Z,0.70
2018-12-20T16:25:19.639Z,0.60
2018-12-20T16:27:47.085Z,1.30
2018-12-20T16:30:14.588Z,1.00
2018-12-20T16:32:42.073Z,1.07
2018-12-20T16:35:09.590Z,1.10
2018-12-20T16:37:37.051Z,1.07
2018-12-20T16:40:05.301Z,1.47
2018-12-20T16:42:32.898Z,1.10
2018-12-20T16:45:00.364Z,0.70
2018-12-20T16:47:27.863Z,0.97
2018-12-20T16:49:55.372Z,0.90
2018-12-20T16:52:22.830Z,1.17
2018-12-20T16:54:50.443Z,0.77
2018-12-20T16:57:18.076Z,0.60
2018-12-20T16:59:45.594Z,0.80
2018-12-20T17:02:13.091Z,0.50
2018-12-20T17:04:40.553Z,0.80
2018-12-20T17:07:07.999Z,0.57
2018-12-20T17:09:35.457Z,0.70
2018-12-20T17:12:03.007Z,0.60
2018-12-20T17:14:30.458Z,0.53
2018-12-20T17:16:57.918Z,0.70
2018-12-20T17:19:25.473Z,0.90
2018-12-20T17:21:52.970Z,0.60
2018-12-20T17:24:20.424Z,0.80
2018-12-20T17:26:47.884Z,0.90
2018-12-20T17:29:15.374Z,0.83
2018-12-20T17:31:42.877Z,0.80
2018-12-20T17:34:10.318Z,0.50
2018-12-20T17:36:37.774Z,0.63
2018-12-20T17:39:06.634Z,0.70
2018-12-20T17:41:34.209Z,0.60
2018-12-20T17:44:03.086Z,0.60
2018-12-20T17:46:30.540Z,0.50
2018-12-20T17:48:58.143Z,0.60
2018-12-20T17:51:25.647Z,1.77
2018-12-20T17:53:53.177Z,1.70
2018-12-20T17:56:20.651Z,0.80
2018-12-20T17:58:48.107Z,0.80
2018-12-20T18:01:15.618Z,0.83
2018-12-20T18:03:43.091Z,0.63
2018-12-20T18:06:10.548Z,1.00
2018-12-20T18:08:38.526Z,0.60
2018-12-20T18:11:05.990Z,2.53
2018-12-20T18:13:33.601Z,1.27
2018-12-20T18:16:01.083Z,1.02
2018-12-20T18:18:28.547Z,0.70
2018-12-20T18:20:56.068Z,0.60
2018-12-20T18:23:23.523Z,0.90
2018-12-20T18:25:50.977Z,0.97
2018-12-20T18:28:18.439Z,0.70
2018-12-20T18:30:45.921Z,0.83
2018-12-20T18:33:13.375Z,0.60
2018-12-20T18:35:40.839Z,0.63
2018-12-20T18:38:08.285Z,1.00
2018-12-20T18:40:35.926Z,0.60
2018-12-20T18:43:03.437Z,0.60
2018-12-20T18:45:30.896Z,0.50
2018-12-20T18:47:58.479Z,0.70
2018-12-20T18:50:25.944Z,0.53
2018-12-20T18:52:53.458Z,0.70
2018-12-20T18:55:20.914Z,0.90
2018-12-20T18:57:48.366Z,0.73
2018-12-20T19:00:15.861Z,0.60
2018-12-20T19:02:43.451Z,0.70
2018-12-20T19:05:10.918Z,0.50
2018-12-20T19:07:38.374Z,0.60
2018-12-20T19:10:06.335Z,0.53
2018-12-20T19:12:33.784Z,0.57
2018-12-20T19:15:01.254Z,0.40
2018-12-20T19:17:28.806Z,0.50
2018-12-20T19:19:56.633Z,0.50
2018-12-20T19:22:24.363Z,0.50
2018-12-20T19:24:51.812Z,1.33
2018-12-20T19:27:19.273Z,0.73
2018-12-20T19:29:46.744Z,0.60
2018-12-20T19:32:14.194Z,1.00
2018-12-20T19:34:41.700Z,0.70
2018-12-20T19:37:09.154Z,1.70
2018-12-20T19:39:37.096Z,0.60
2018-12-20T19:42:06.656Z,0.57
2018-12-20T19:44:34.126Z,0.67
2018-12-20T19:47:01.586Z,0.60
2018-12-20T19:49:29.051Z,0.67
2018-12-20T19:51:56.544Z,1.63
2018-12-20T19:54:23.994Z,1.20
2018-12-20T19:56:51.497Z,1.20
2018-12-20T19:59:18.997Z,0.70
2018-12-20T20:01:46.614Z,1.60
2018-12-20T20:04:14.202Z,4.87
2018-12-20T20:06:41.658Z,3.20
2018-12-20T20:09:09.115Z,4.80
2018-12-20T20:11:36.674Z,5.57
2018-12-20T20:14:04.277Z,0.90
2018-12-20T20:16:31.730Z,0.90
2018-12-20T20:18:59.182Z,0.70
2018-12-20T20:21:26.692Z,0.63
2018-12-20T20:23:54.151Z,0.90
2018-12-20T20:26:21.614Z,0.70
2018-12-20T20:28:49.189Z,0.80
2018-12-20T20:31:16.664Z,0.80
2018-12-20T20:33:44.165Z,1.17
2018-12-20T20:36:11.619Z,0.80
2018-12-20T20:38:39.109Z,0.80
2018-12-20T20:41:06.563Z,0.70
2018-12-20T20:43:34.028Z,0.80
2018-12-20T20:46:01.494Z,1.00
2018-12-20T20:48:30.548Z,1.20
2018-12-20T20:50:58.457Z,0.70
2018-12-20T20:53:25.909Z,0.70
2018-12-20T20:55:53.381Z,0.90
2018-12-20T20:58:20.854Z,0.83
2018-12-20T21:00:48.307Z,0.80
2018-12-20T21:03:15.862Z,0.95
2018-12-20T21:05:43.401Z,1.25
2018-12-20T21:08:10.860Z,0.80
2018-12-20T21:10:38.312Z,0.98
2018-12-20T21:13:05.774Z,1.00
2018-12-20T21:15:33.217Z,0.80
2018-12-20T21:18:00.677Z,0.95
2018-12-20T21:20:30.850Z,1.00
2018-12-20T21:22:57.593Z,1.57
2018-12-20T21:25:25.040Z,1.43
2018-12-20T21:27:52.493Z,1.13
2018-12-20T21:30:19.939Z,1.32
2018-12-20T21:32:47.396Z,1.10
2018-12-20T21:35:14.863Z,1.15
2018-12-20T21:37:42.312Z,1.10
2018-12-20T21:40:09.766Z,0.90
2018-12-20T21:42:37.224Z,1.03
2018-12-20T21:45:05.459Z,0.70
2018-12-20T21:47:32.912Z,1.47
2018-12-20T21:50:00.345Z,0.90
2018-12-20T21:52:27.792Z,1.10
2018-12-20T21:54:55.289Z,1.33
2018-12-20T21:57:22.728Z,1.47
2018-12-20T21:59:50.177Z,0.83
2018-12-20T22:02:17.629Z,0.93
2018-12-20T22:04:45.088Z,1.22
2018-12-20T22:07:12.577Z,1.22
2018-12-20T22:09:40.025Z,0.63
2018-12-20T22:12:07.466Z,0.70
2018-12-20T22:14:34.917Z,0.70
2018-12-20T22:17:02.370Z,0.83
2018-12-20T22:19:29.813Z,1.00
2018-12-20T22:21:57.262Z,0.90
2018-12-20T22:24:24.769Z,1.00
2018-12-20T22:26:52.259Z,1.00
2018-12-20T22:29:19.725Z,1.30
2018-12-20T22:31:47.266Z,0.57
2018-12-20T22:34:14.727Z,0.70
2018-12-20T22:36:42.240Z,0.80
2018-12-20T22:39:09.721Z,0.90
2018-12-20T22:41:37.170Z,1.00
2018-12-20T22:44:04.772Z,1.03
2018-12-20T22:46:32.297Z,0.97
2018-12-20T22:48:59.745Z,0.67
2018-12-20T22:51:27.181Z,0.80
2018-12-20T22:53:54.638Z,1.00
2018-12-20T22:56:22.081Z,1.40
2018-12-20T22:58:49.569Z,1.20
2018-12-20T23:01:17.109Z,0.80
2018-12-20T23:03:44.561Z,1.23
2018-12-20T23:06:12.013Z,0.82
2018-12-20T23:08:39.481Z,1.10
2018-12-20T23:11:06.930Z,0.93
2018-12-20T23:13:34.372Z,1.00
2018-12-20T23:16:01.829Z,0.82
2018-12-20T23:18:29.358Z,0.80
2018-12-20T23:21:04.705Z,0.88
2018-12-20T23:23:26.255Z,1.32
2018-12-20T23:25:53.696Z,1.00
2018-12-20T23:28:21.139Z,1.10
2018-12-20T23:30:48.627Z,1.10
2018-12-20T23:33:16.142Z,1.00
2018-12-20T23:35:43.636Z,1.20
2018-12-20T23:38:11.076Z,0.90
2018-12-20T23:40:38.536Z,0.75
2018-12-20T23:43:06.034Z,0.73
2018-12-20T23:45:33.538Z,0.93
2018-12-20T23:48:00.980Z,0.75
2018-12-20T23:50:28.437Z,0.80
2018-12-20T23:52:56.824Z,0.93
2018-12-20T23:55:24.282Z,1.27
2018-12-20T23:57:51.781Z,0.70
